createdAt,value
2023-03-13T00:01:48.180Z,0.00
2023-03-13T00:02:47.945Z,0.00
2023-03-13T00:03:47.884Z,0.00
2023-03-13T00:04:47.919Z,0.00
2023-03-13T00:05:47.880Z,0.00
2023-03-13T00:06:47.940Z,0.00
2023-03-13T00:07:47.873Z,0.00
2023-03-13T00:08:47.888Z,0.00
2023-03-13T00:09:49.003Z,0.00
2023-03-13T00:10:48.972Z,0.00
2023-03-13T00:11:49.078Z,0.00
2023-03-13T00:12:48.974Z,0.00
2023-03-13T00:13:48.997Z,0.00
2023-03-13T00:14:48.947Z,0.00
2023-03-13T00:15:48.957Z,0.00
2023-03-13T00:16:49.062Z,0.00
2023-03-13T00:17:48.965Z,0.00
2023-03-13T00:18:48.950Z,0.00
2023-03-13T00:19:48.924Z,0.00
2023-03-13T00:20:48.946Z,0.00
2023-03-13T00:21:48.910Z,0.00
2023-03-13T00:22:48.892Z,0.00
2023-03-13T00:23:48.881Z,0.00
2023-03-13T00:24:49.336Z,0.00
2023-03-13T00:25:48.864Z,0.00
2023-03-13T00:26:48.877Z,0.00
2023-03-13T00:27:48.867Z,0.00
2023-03-13T00:28:48.846Z,0.00
2023-03-13T00:29:48.881Z,0.00
2023-03-13T00:30:48.887Z,0.00
2023-03-13T00:31:49.736Z,0.00
2023-03-13T00:32:48.927Z,0.00
2023-03-13T00:33:48.855Z,0.00
2023-03-13T00:34:48.813Z,0.00
2023-03-13T00:35:48.887Z,0.00
2023-03-13T00:36:48.798Z,0.00
2023-03-13T00:37:48.777Z,0.00
2023-03-13T00:38:48.786Z,0.00
2023-03-13T00:39:48.752Z,0.00
2023-03-13T00:40:48.760Z,0.00
2023-03-13T00:41:48.913Z,0.00
2023-03-13T00:42:49.626Z,0.00
2023-03-13T00:43:48.727Z,0.00
2023-03-13T00:44:48.699Z,0.00
2023-03-13T00:45:48.779Z,0.00
2023-03-13T00:46:48.691Z,0.00
2023-03-13T00:47:48.705Z,0.00
2023-03-13T00:48:48.688Z,0.00
2023-03-13T00:49:48.676Z,0.00
2023-03-13T00:50:48.662Z,0.00
2023-03-13T00:51:48.726Z,0.00
2023-03-13T00:52:48.699Z,0.00
2023-03-13T00:53:48.657Z,0.00
2023-03-13T00:54:48.708Z,0.00
2023-03-13T00:55:48.705Z,0.00
2023-03-13T00:56:48.779Z,0.00
2023-03-13T00:57:48.704Z,0.00
2023-03-13T00:58:48.632Z,0.00
2023-03-13T00:59:49.194Z,0.00
2023-03-13T01:00:48.595Z,0.00
2023-03-13T01:01:48.638Z,0.00
2023-03-13T01:02:48.747Z,0.00
2023-03-13T01:03:50.994Z,0.00
2023-03-13T01:04:48.587Z,0.00
2023-03-13T01:05:48.562Z,0.00
2023-03-13T01:06:48.587Z,0.00
2023-03-13T01:07:48.625Z,0.00
2023-03-13T01:08:48.559Z,0.00
2023-03-13T01:09:48.555Z,0.00
2023-03-13T01:10:48.539Z,0.00
2023-03-13T01:11:48.524Z,0.00
2023-03-13T01:12:48.534Z,0.00
2023-03-13T01:13:49.211Z,0.00
2023-03-13T01:14:48.659Z,0.00
2023-03-13T01:15:48.540Z,0.00
2023-03-13T01:16:48.493Z,0.00
2023-03-13T01:17:48.473Z,0.00
2023-03-13T01:18:48.492Z,0.00
2023-03-13T01:19:48.481Z,0.00
2023-03-13T01:20:48.466Z,0.00
2023-03-13T01:21:48.493Z,0.00
2023-03-13T01:22:48.433Z,0.00
2023-03-13T01:23:48.454Z,0.00
2023-03-13T01:24:48.446Z,0.00
2023-03-13T01:25:48.424Z,0.00
2023-03-13T01:26:49.180Z,0.00
2023-03-13T01:27:49.150Z,0.00
2023-03-13T01:28:48.388Z,0.00
2023-03-13T01:29:48.396Z,0.00
2023-03-13T01:30:48.449Z,0.00
2023-03-13T01:31:48.397Z,0.00
2023-03-13T01:32:48.451Z,0.00
2023-03-13T01:33:48.376Z,0.00
2023-03-13T01:34:48.375Z,0.00
2023-03-13T01:35:48.384Z,0.00
2023-03-13T01:36:48.347Z,0.00
2023-03-13T01:37:48.357Z,0.00
2023-03-13T01:38:48.308Z,0.00
2023-03-13T01:39:48.495Z,0.00
2023-03-13T01:40:48.323Z,0.00
2023-03-13T01:41:48.280Z,0.00
2023-03-13T01:42:48.313Z,0.00
2023-03-13T01:43:49.718Z,0.00
2023-03-13T01:44:48.281Z,0.00
2023-03-13T01:45:48.291Z,0.00
2023-03-13T01:46:48.337Z,0.00
2023-03-13T01:47:48.270Z,0.00
2023-03-13T01:48:49.303Z,0.00
2023-03-13T01:49:49.234Z,0.00
2023-03-13T01:50:48.230Z,0.00
2023-03-13T01:51:48.235Z,0.00
2023-03-13T01:52:48.226Z,0.00
2023-03-13T01:53:48.194Z,0.00
2023-03-13T01:54:48.204Z,0.00
2023-03-13T01:55:48.217Z,0.00
2023-03-13T01:56:48.228Z,0.00
2023-03-13T01:57:48.186Z,0.00
2023-03-13T01:58:48.170Z,0.00
2023-03-13T01:59:48.147Z,0.00
2023-03-13T02:00:48.148Z,0.00
2023-03-13T02:01:48.176Z,0.00
2023-03-13T02:02:48.247Z,0.00
2023-03-13T02:05:27.882Z,0.00
2023-03-13T02:06:27.902Z,0.00
2023-03-13T02:07:29.045Z,0.00
2023-03-13T02:08:29.020Z,0.00
2023-03-13T02:09:29.005Z,0.00
2023-03-13T02:10:29.015Z,0.00
2023-03-13T02:11:29.001Z,0.00
2023-03-13T02:12:29.015Z,0.00
2023-03-13T02:13:28.998Z,0.00
2023-03-13T02:14:28.986Z,0.00
2023-03-13T02:15:28.943Z,0.00
2023-03-13T02:16:28.989Z,0.00
2023-03-13T02:17:28.961Z,0.00
2023-03-13T02:18:28.971Z,0.00
2023-03-13T02:19:28.945Z,0.00
2023-03-13T02:20:29.423Z,0.00
2023-03-13T02:21:28.968Z,0.00
2023-03-13T02:22:28.918Z,0.00
2023-03-13T02:23:29.173Z,0.00
2023-03-13T02:24:28.869Z,0.00
2023-03-13T02:25:28.881Z,0.00
2023-03-13T02:26:28.865Z,0.00
2023-03-13T02:27:28.874Z,0.00
2023-03-13T02:28:28.883Z,0.00
2023-03-13T02:29:28.878Z,0.00
2023-03-13T02:30:28.852Z,0.00
2023-03-13T02:31:28.841Z,0.00
2023-03-13T02:32:28.923Z,0.00
2023-03-13T02:33:29.414Z,0.00
2023-03-13T02:34:28.840Z,0.00
2023-03-13T02:35:28.863Z,0.00
2023-03-13T02:36:28.820Z,0.00
2023-03-13T02:37:28.786Z,0.00
2023-03-13T02:38:28.786Z,0.00
2023-03-13T02:39:28.770Z,0.00
2023-03-13T02:40:30.618Z,0.00
2023-03-13T02:41:28.751Z,0.00
2023-03-13T02:42:28.745Z,0.00
2023-03-13T02:43:29.599Z,0.00
2023-03-13T02:44:28.753Z,0.00
2023-03-13T02:45:28.711Z,0.00
2023-03-13T02:46:28.749Z,0.00
2023-03-13T02:47:28.716Z,0.00
2023-03-13T02:48:28.714Z,0.00
2023-03-13T02:49:28.707Z,0.00
2023-03-13T02:50:28.684Z,0.00
2023-03-13T02:51:28.655Z,0.00
2023-03-13T02:52:28.696Z,0.00
2023-03-13T02:53:28.751Z,0.00
2023-03-13T02:54:28.665Z,0.00
2023-03-13T02:55:28.656Z,0.00
2023-03-13T02:56:29.584Z,0.00
2023-03-13T02:57:29.590Z,0.00
2023-03-13T02:58:30.281Z,0.00
2023-03-13T02:59:28.627Z,0.00
2023-03-13T03:00:28.681Z,0.00
2023-03-13T03:01:28.597Z,0.00
2023-03-13T03:02:28.629Z,0.00
2023-03-13T03:03:29.593Z,0.00
2023-03-13T03:04:28.571Z,0.00
2023-03-13T03:05:28.570Z,0.00
2023-03-13T03:06:28.574Z,0.00
2023-03-13T03:07:28.632Z,0.00
2023-03-13T03:08:28.552Z,0.00
2023-03-13T03:09:28.549Z,0.00
2023-03-13T03:10:28.563Z,0.00
2023-03-13T03:11:28.535Z,0.00
2023-03-13T03:12:28.568Z,0.00
2023-03-13T03:13:28.581Z,0.00
2023-03-13T03:14:28.486Z,0.00
2023-03-13T03:15:28.492Z,0.00
2023-03-13T03:16:28.537Z,0.00
2023-03-13T03:17:29.133Z,0.00
2023-03-13T03:18:28.482Z,0.00
2023-03-13T03:19:28.478Z,0.00
2023-03-13T03:20:29.448Z,0.00
2023-03-13T03:21:28.493Z,0.00
2023-03-13T03:22:28.451Z,0.00
2023-03-13T03:23:28.449Z,0.00
2023-03-13T03:24:28.444Z,0.00
2023-03-13T03:25:28.412Z,0.00
2023-03-13T03:26:28.407Z,0.00
2023-03-13T03:27:28.431Z,0.00
2023-03-13T03:28:28.388Z,0.00
2023-03-13T03:29:28.425Z,0.00
2023-03-13T03:30:28.925Z,0.00
2023-03-13T03:31:28.409Z,0.00
2023-03-13T03:32:28.515Z,0.00
2023-03-13T03:33:28.328Z,0.00
2023-03-13T03:34:29.387Z,0.00
2023-03-13T03:35:28.393Z,0.00
2023-03-13T03:36:28.320Z,0.00
2023-03-13T03:37:29.165Z,0.00
2023-03-13T03:38:28.302Z,0.00
2023-03-13T03:39:28.310Z,0.00
2023-03-13T03:40:28.665Z,0.00
2023-03-13T03:41:28.302Z,0.00
2023-03-13T03:42:28.284Z,0.00
2023-03-13T03:43:28.278Z,0.00
2023-03-13T03:44:29.110Z,0.00
2023-03-13T03:45:28.372Z,0.00
2023-03-13T03:46:28.250Z,0.00
2023-03-13T04:02:43.636Z,0.00
2023-03-13T04:03:43.719Z,0.00
2023-03-13T04:04:43.535Z,0.00
2023-03-13T04:05:43.502Z,0.00
2023-03-13T04:06:44.705Z,0.00
2023-03-13T04:07:44.680Z,0.00
2023-03-13T04:08:44.685Z,0.00
2023-03-13T04:09:44.632Z,0.00
2023-03-13T04:10:44.632Z,0.00
2023-03-13T04:11:44.612Z,0.00
2023-03-13T04:12:44.591Z,0.00
2023-03-13T04:13:44.612Z,0.00
2023-03-13T04:14:44.598Z,0.00
2023-03-13T04:15:45.155Z,0.00
2023-03-13T04:16:44.660Z,0.00
2023-03-13T04:17:44.596Z,0.00
2023-03-13T04:18:44.604Z,0.00
2023-03-13T04:19:44.601Z,0.00
2023-03-13T04:20:44.585Z,0.00
2023-03-13T04:21:44.555Z,0.00
2023-03-13T04:22:44.556Z,0.00
2023-03-13T04:23:44.518Z,0.00
2023-03-13T04:24:44.600Z,0.00
2023-03-13T04:26:17.170Z,0.00
2023-03-13T04:26:44.568Z,0.00
2023-03-13T04:27:44.546Z,0.00
2023-03-13T04:28:44.498Z,0.00
2023-03-13T04:29:44.468Z,0.00
2023-03-13T04:30:44.524Z,0.00
2023-03-13T04:31:44.470Z,0.00
2023-03-13T04:32:44.589Z,0.00
2023-03-13T04:33:44.475Z,0.00
2023-03-13T04:34:44.410Z,0.00
2023-03-13T04:35:44.661Z,0.00
2023-03-13T04:36:44.429Z,0.00
2023-03-13T04:37:44.424Z,0.00
2023-03-13T04:38:44.386Z,0.00
2023-03-13T04:39:44.435Z,0.00
2023-03-13T04:40:44.403Z,0.00
2023-03-13T04:41:44.428Z,0.00
2023-03-13T04:42:44.355Z,0.00
2023-03-13T04:43:44.363Z,0.00
2023-03-13T04:44:44.358Z,0.00
2023-03-13T04:45:44.423Z,0.00
2023-03-13T04:46:44.341Z,0.00
2023-03-13T04:47:44.335Z,0.00
2023-03-13T04:48:44.345Z,0.00
2023-03-13T04:49:44.303Z,0.00
2023-03-13T04:50:44.344Z,0.00
2023-03-13T04:51:44.310Z,0.00
2023-03-13T04:52:44.349Z,0.00
2023-03-13T04:53:44.292Z,0.00
2023-03-13T04:54:44.309Z,0.00
2023-03-13T04:55:44.311Z,0.00
2023-03-13T04:56:44.457Z,0.00
2023-03-13T04:57:44.282Z,0.00
2023-03-13T04:58:46.837Z,0.00
2023-03-13T04:59:44.266Z,0.00
2023-03-13T05:00:44.235Z,0.00
2023-03-13T05:01:44.340Z,0.00
2023-03-13T05:02:44.301Z,0.00
2023-03-13T05:03:44.258Z,0.00
2023-03-13T05:04:44.251Z,0.00
2023-03-13T05:05:44.221Z,0.00
2023-03-13T05:06:44.216Z,0.00
2023-03-13T05:07:44.346Z,0.00
2023-03-13T05:08:44.234Z,0.00
2023-03-13T05:09:44.165Z,0.00
2023-03-13T05:10:44.173Z,0.00
2023-03-13T05:11:44.148Z,0.00
2023-03-13T05:12:44.163Z,0.00
2023-03-13T05:13:44.154Z,0.00
2023-03-13T05:14:44.145Z,0.00
2023-03-13T05:15:44.842Z,0.00
2023-03-13T05:16:44.130Z,0.00
2023-03-13T05:17:44.114Z,0.00
2023-03-13T05:18:44.188Z,0.00
2023-03-13T05:19:44.116Z,0.00
2023-03-13T05:20:44.092Z,0.00
2023-03-13T05:21:44.068Z,0.00
2023-03-13T05:22:44.090Z,0.00
2023-03-13T05:23:44.087Z,0.00
2023-03-13T05:24:44.051Z,4.00
2023-03-13T05:25:44.079Z,4.00
2023-03-13T05:26:44.108Z,4.00
2023-03-13T05:27:44.049Z,4.00
2023-03-13T05:28:44.052Z,4.00
2023-03-13T05:29:44.024Z,8.00
2023-03-13T05:30:44.086Z,4.00
2023-03-13T05:31:44.021Z,4.00
2023-03-13T05:32:44.077Z,8.00
2023-03-13T05:33:44.005Z,8.00
2023-03-13T05:34:44.779Z,8.00
2023-03-13T05:35:43.999Z,12.00
2023-03-13T05:36:44.018Z,12.00
2023-03-13T05:37:43.977Z,12.00
2023-03-13T05:38:44.025Z,16.00
2023-03-13T05:39:44.347Z,12.00
2023-03-13T05:40:43.923Z,16.00
2023-03-13T05:41:43.905Z,20.00
2023-03-13T05:42:43.951Z,20.00
2023-03-13T05:43:43.929Z,24.00
2023-03-13T05:44:43.917Z,28.00
2023-03-13T05:45:43.908Z,28.00
2023-03-13T05:46:43.919Z,32.00
2023-03-13T05:47:43.878Z,36.00
2023-03-13T05:48:43.873Z,44.00
2023-03-13T05:49:43.862Z,44.00
2023-03-13T05:50:43.870Z,52.00
2023-03-13T05:51:43.863Z,56.00
2023-03-13T05:52:43.876Z,60.00
2023-03-13T05:53:43.827Z,60.00
2023-03-13T05:54:43.832Z,68.00
2023-03-13T05:55:43.823Z,72.00
2023-03-13T05:56:43.822Z,80.00
2023-03-13T05:57:43.804Z,76.00
2023-03-13T05:58:43.867Z,84.00
2023-03-13T05:59:43.771Z,88.00
2023-03-13T06:00:43.813Z,100.00
2023-03-13T06:01:43.826Z,108.00
2023-03-13T06:02:43.766Z,108.00
2023-03-13T06:03:44.235Z,108.00
2023-03-13T06:04:44.409Z,112.00
2023-03-13T06:05:43.732Z,108.00
2023-03-13T06:06:43.737Z,112.00
2023-03-13T06:07:44.303Z,136.00
2023-03-13T06:08:43.752Z,160.00
2023-03-13T06:09:43.841Z,168.00
2023-03-13T06:10:43.698Z,180.00
2023-03-13T06:11:43.690Z,196.00
2023-03-13T06:12:43.681Z,196.00
2023-03-13T06:13:43.669Z,184.00
2023-03-13T06:14:43.677Z,196.00
2023-03-13T06:15:44.679Z,192.00
2023-03-13T06:16:43.675Z,188.00
2023-03-13T06:17:43.661Z,180.00
2023-03-13T06:18:43.705Z,176.00
2023-03-13T06:19:43.627Z,196.00
2023-03-13T06:20:43.633Z,240.00
2023-03-13T06:21:43.640Z,308.00
2023-03-13T06:22:43.605Z,372.00
2023-03-13T06:23:43.594Z,416.00
2023-03-13T06:24:43.595Z,484.00
2023-03-13T06:25:43.627Z,496.00
2023-03-13T06:26:43.646Z,500.00
2023-03-13T06:27:43.560Z,536.00
2023-03-13T06:28:43.566Z,576.00
2023-03-13T06:29:43.568Z,628.00
2023-03-13T06:30:43.581Z,668.00
2023-03-13T06:31:43.689Z,692.00
2023-03-13T06:32:43.667Z,732.00
2023-03-13T06:33:43.529Z,744.00
2023-03-13T06:34:43.560Z,712.00
2023-03-13T06:35:55.904Z,668.00
2023-03-13T06:36:45.571Z,752.00
2023-03-13T06:37:43.510Z,896.00
2023-03-13T06:38:43.503Z,844.00
2023-03-13T06:39:43.530Z,732.00
2023-03-13T06:40:43.599Z,656.00
2023-03-13T06:41:43.509Z,676.00
2023-03-13T06:42:43.526Z,668.00
2023-03-13T06:43:43.445Z,648.00
2023-03-13T06:44:43.450Z,652.00
2023-03-13T06:45:43.429Z,616.00
2023-03-13T06:46:43.679Z,632.00
2023-03-13T06:47:43.438Z,640.00
2023-03-13T06:48:43.406Z,696.00
2023-03-13T06:49:43.419Z,684.00
2023-03-13T06:50:43.413Z,676.00
2023-03-13T06:51:43.421Z,640.00
2023-03-13T06:52:44.306Z,620.00
2023-03-13T06:53:44.374Z,632.00
2023-03-13T06:54:43.383Z,644.00
2023-03-13T06:55:43.389Z,632.00
2023-03-13T06:56:43.371Z,656.00
2023-03-13T06:57:43.373Z,628.00
2023-03-13T06:58:43.356Z,576.00
2023-03-13T06:59:43.325Z,572.00
2023-03-13T07:00:43.348Z,572.00
2023-03-13T07:01:43.336Z,556.00
2023-03-13T07:02:43.460Z,572.00
2023-03-13T07:03:44.767Z,576.00
2023-03-13T07:04:45.192Z,576.00
2023-03-13T07:05:44.321Z,552.00
2023-03-13T07:06:43.267Z,496.00
2023-03-13T07:07:43.284Z,452.00
2023-03-13T07:08:43.280Z,432.00
2023-03-13T07:09:43.288Z,412.00
2023-03-13T07:10:43.348Z,392.00
2023-03-13T07:11:43.296Z,412.00
2023-03-13T07:12:43.355Z,428.00
2023-03-13T07:13:43.224Z,456.00
2023-03-13T07:14:43.262Z,452.00
2023-03-13T07:15:43.283Z,472.00
2023-03-13T07:16:43.233Z,520.00
2023-03-13T07:17:43.261Z,564.00
2023-03-13T07:18:43.196Z,560.00
2023-03-13T07:19:43.183Z,572.00
2023-03-13T07:20:43.296Z,572.00
2023-03-13T07:21:43.208Z,620.00
2023-03-13T07:22:43.172Z,616.00
2023-03-13T07:23:43.150Z,648.00
2023-03-13T07:24:43.192Z,708.00
2023-03-13T07:25:43.147Z,796.00
2023-03-13T07:26:57.965Z,788.00
2023-03-13T07:27:45.107Z,836.00
2023-03-13T07:28:43.107Z,948.00
2023-03-13T07:29:43.109Z,1104.00
2023-03-13T07:30:43.117Z,1156.00
2023-03-13T07:31:43.099Z,1104.00
2023-03-13T07:32:43.087Z,1144.00
2023-03-13T07:33:43.090Z,996.00
2023-03-13T07:34:43.054Z,848.00
2023-03-13T07:35:43.071Z,760.00
2023-03-13T07:36:43.104Z,764.00
2023-03-13T07:37:43.037Z,696.00
2023-03-13T07:38:43.039Z,584.00
2023-03-13T07:39:43.068Z,632.00
2023-03-13T07:40:43.038Z,620.00
2023-03-13T07:41:43.043Z,628.00
2023-03-13T07:42:43.016Z,584.00
2023-03-13T07:43:43.029Z,556.00
2023-03-13T07:44:43.001Z,576.00
2023-03-13T07:45:43.035Z,636.00
2023-03-13T07:46:43.028Z,620.00
2023-03-13T07:47:42.984Z,636.00
2023-03-13T07:48:42.945Z,676.00
2023-03-13T07:49:42.955Z,784.00
2023-03-13T07:50:43.031Z,900.00
2023-03-13T07:51:44.464Z,1044.00
2023-03-13T07:52:43.980Z,1172.00
2023-03-13T07:53:42.911Z,1180.00
2023-03-13T07:54:42.997Z,1088.00
2023-03-13T07:55:42.910Z,968.00
2023-03-13T07:56:42.895Z,972.00
2023-03-13T07:57:42.874Z,1064.00
2023-03-13T07:58:42.878Z,1064.00
2023-03-13T07:59:42.898Z,1040.00
2023-03-13T08:00:42.921Z,1148.00
2023-03-13T08:01:42.904Z,1104.00
2023-03-13T08:02:42.953Z,1140.00
2023-03-13T08:03:43.032Z,1272.00
2023-03-13T08:04:42.913Z,1220.00
2023-03-13T08:05:42.923Z,1308.00
2023-03-13T08:06:42.899Z,1336.00
2023-03-13T08:07:42.821Z,1432.00
2023-03-13T08:08:42.867Z,1696.00
2023-03-13T08:09:42.844Z,1920.00
2023-03-13T08:11:16.255Z,1756.00
2023-03-13T08:11:42.786Z,1528.00
2023-03-13T08:12:42.823Z,1388.00
2023-03-13T08:13:42.798Z,1232.00
2023-03-13T08:14:42.779Z,1136.00
2023-03-13T08:15:42.791Z,1168.00
2023-03-13T08:16:42.813Z,1132.00
2023-03-13T08:17:42.828Z,1052.00
2023-03-13T08:18:42.734Z,1016.00
2023-03-13T08:19:42.740Z,1016.00
2023-03-13T08:20:45.251Z,1160.00
2023-03-13T08:21:42.703Z,1396.00
2023-03-13T08:22:43.373Z,1420.00
2023-03-13T08:23:42.824Z,1416.00
2023-03-13T08:24:42.710Z,1248.00
2023-03-13T08:25:42.696Z,1168.00
2023-03-13T08:26:42.701Z,1140.00
2023-03-13T08:27:42.662Z,1212.00
2023-03-13T08:28:43.421Z,1368.00
2023-03-13T08:29:42.662Z,1372.00
2023-03-13T08:30:42.668Z,1264.00
2023-03-13T08:31:42.619Z,1244.00
2023-03-13T08:32:43.400Z,1316.00
2023-03-13T08:33:42.685Z,1420.00
2023-03-13T08:34:42.699Z,1380.00
2023-03-13T08:35:42.680Z,1480.00
2023-03-13T08:36:42.653Z,1416.00
2023-03-13T08:37:42.733Z,1392.00
2023-03-13T08:38:44.120Z,1160.00
2023-03-13T08:39:42.581Z,1064.00
2023-03-13T08:40:42.583Z,1056.00
2023-03-13T08:41:42.624Z,1028.00
2023-03-13T08:42:42.532Z,1036.00
2023-03-13T08:43:42.524Z,1068.00
2023-03-13T08:44:42.544Z,1116.00
2023-03-13T08:45:42.581Z,980.00
2023-03-13T08:46:42.628Z,940.00
2023-03-13T08:47:42.510Z,900.00
2023-03-13T08:48:42.518Z,864.00
2023-03-13T08:49:42.539Z,852.00
2023-03-13T08:50:42.564Z,812.00
2023-03-13T08:51:42.484Z,828.00
2023-03-13T08:52:42.462Z,948.00
2023-03-13T08:53:42.463Z,1164.00
2023-03-13T08:54:42.574Z,1168.00
2023-03-13T08:55:42.532Z,1272.00
2023-03-13T08:56:42.469Z,1336.00
2023-03-13T08:57:42.454Z,1212.00
2023-03-13T08:58:42.448Z,1216.00
2023-03-13T08:59:42.415Z,1348.00
2023-03-13T09:00:42.404Z,1556.00
2023-03-13T09:01:42.471Z,1868.00
2023-03-13T09:02:42.442Z,1604.00
2023-03-13T09:03:42.446Z,1276.00
2023-03-13T09:04:42.412Z,1100.00
2023-03-13T09:05:55.091Z,952.00
2023-03-13T09:06:44.440Z,920.00
2023-03-13T09:07:42.342Z,1064.00
2023-03-13T09:08:42.345Z,1172.00
2023-03-13T09:09:43.356Z,1392.00
2023-03-13T09:10:42.330Z,1720.00
2023-03-13T09:11:42.370Z,1704.00
2023-03-13T09:12:42.351Z,1920.00
2023-03-13T09:13:42.355Z,2016.00
2023-03-13T09:14:42.866Z,1764.00
2023-03-13T09:15:42.332Z,1980.00
2023-03-13T09:16:42.280Z,2188.00
2023-03-13T09:17:42.324Z,2276.00
2023-03-13T09:18:42.302Z,2500.00
2023-03-13T09:19:54.266Z,2616.00
2023-03-13T09:20:44.342Z,2280.00
2023-03-13T09:21:42.245Z,1932.00
2023-03-13T09:22:42.249Z,1760.00
2023-03-13T09:23:42.222Z,1552.00
2023-03-13T09:24:42.266Z,1540.00
2023-03-13T09:25:42.222Z,1692.00
2023-03-13T09:26:48.996Z,2024.00
2023-03-13T09:27:44.231Z,2052.00
2023-03-13T09:28:42.242Z,2100.00
2023-03-13T09:29:42.457Z,2180.00
2023-03-13T09:30:42.308Z,2388.00
2023-03-13T09:31:42.225Z,2308.00
2023-03-13T09:32:42.278Z,2292.00
2023-03-13T09:33:42.150Z,2364.00
2023-03-13T09:34:42.158Z,2712.00
2023-03-13T09:35:42.166Z,2748.00
2023-03-13T09:36:42.126Z,3012.00
2023-03-13T09:37:42.174Z,2992.00
2023-03-13T09:38:42.118Z,3344.00
2023-03-13T09:39:42.130Z,3384.00
2023-03-13T09:40:42.156Z,3496.00
2023-03-13T09:41:42.094Z,3752.00
2023-03-13T09:42:42.103Z,3664.00
2023-03-13T09:43:42.164Z,3724.00
2023-03-13T09:44:42.077Z,3552.00
2023-03-13T09:45:43.086Z,3016.00
2023-03-13T09:46:42.108Z,2872.00
2023-03-13T09:47:42.075Z,2784.00
2023-03-13T09:48:42.044Z,2524.00
2023-03-13T09:49:42.093Z,2504.00
2023-03-13T09:50:42.075Z,2844.00
2023-03-13T09:51:42.017Z,3816.00
2023-03-13T09:52:42.022Z,5204.00
2023-03-13T09:53:42.038Z,6724.00
2023-03-13T09:54:42.017Z,6412.00
2023-03-13T09:55:41.980Z,5188.00
2023-03-13T09:56:41.971Z,4776.00
2023-03-13T09:57:41.989Z,4408.00
2023-03-13T09:58:42.208Z,4140.00
2023-03-13T09:59:41.954Z,3980.00
2023-03-13T10:00:42.067Z,3416.00
2023-03-13T10:01:41.986Z,2912.00
2023-03-13T10:02:41.935Z,2756.00
2023-03-13T10:03:41.972Z,2660.00
2023-03-13T10:04:42.190Z,2476.00
2023-03-13T10:05:42.975Z,2244.00
2023-03-13T10:06:41.896Z,2200.00
2023-03-13T10:07:41.926Z,2320.00
2023-03-13T10:08:41.908Z,2220.00
2023-03-13T10:09:41.875Z,2124.00
2023-03-13T10:10:41.886Z,2140.00
2023-03-13T10:11:41.853Z,2424.00
2023-03-13T10:12:41.850Z,2320.00
2023-03-13T10:13:41.858Z,2124.00
2023-03-13T10:14:41.926Z,2032.00
2023-03-13T10:15:41.839Z,1996.00
2023-03-13T10:16:41.892Z,2224.00
2023-03-13T10:17:41.800Z,2424.00
2023-03-13T10:18:41.839Z,2268.00
2023-03-13T10:19:41.853Z,2048.00
2023-03-13T10:20:41.761Z,1912.00
2023-03-13T10:21:41.792Z,2168.00
2023-03-13T10:22:41.793Z,2168.00
2023-03-13T10:23:41.770Z,2096.00
2023-03-13T10:24:41.783Z,1940.00
2023-03-13T10:26:14.373Z,2108.00
2023-03-13T10:26:41.745Z,1940.00
2023-03-13T10:27:41.759Z,1728.00
2023-03-13T10:28:41.733Z,1736.00
2023-03-13T10:29:41.708Z,1604.00
2023-03-13T10:30:41.727Z,1792.00
2023-03-13T10:31:41.758Z,2076.00
2023-03-13T10:32:41.773Z,2004.00
2023-03-13T10:33:41.716Z,1868.00
2023-03-13T10:34:41.845Z,1884.00
2023-03-13T10:35:42.422Z,1824.00
2023-03-13T10:36:41.654Z,1828.00
2023-03-13T10:37:41.861Z,1892.00
2023-03-13T10:38:41.648Z,1904.00
2023-03-13T10:39:41.691Z,1792.00
2023-03-13T10:40:41.630Z,1804.00
2023-03-13T10:43:39.260Z,1832.00
2023-03-13T10:44:39.248Z,1736.00
2023-03-13T10:45:40.388Z,1740.00
2023-03-13T10:46:40.507Z,1772.00
2023-03-13T10:47:40.353Z,2120.00
2023-03-13T10:48:40.341Z,2336.00
2023-03-13T10:49:40.923Z,1972.00
2023-03-13T10:50:40.374Z,1812.00
2023-03-13T10:51:40.317Z,1828.00
2023-03-13T10:52:40.348Z,1796.00
2023-03-13T10:53:40.296Z,1868.00
2023-03-13T10:54:40.348Z,1980.00
2023-03-13T10:55:40.294Z,2188.00
2023-03-13T10:56:40.970Z,2640.00
2023-03-13T10:57:40.304Z,2724.00
2023-03-13T10:58:40.264Z,2940.00
2023-03-13T10:59:40.338Z,3196.00
2023-03-13T11:00:40.288Z,3788.00
2023-03-13T11:01:40.274Z,5112.00
2023-03-13T11:02:40.393Z,6508.00
2023-03-13T11:03:41.484Z,9192.00
2023-03-13T11:04:40.217Z,7876.00
2023-03-13T11:05:40.212Z,6740.00
2023-03-13T11:06:40.501Z,6412.00
2023-03-13T11:07:40.194Z,5632.00
2023-03-13T11:08:40.279Z,4888.00
2023-03-13T11:09:40.233Z,3888.00
2023-03-13T11:10:40.173Z,4724.00
2023-03-13T11:11:40.175Z,5552.00
2023-03-13T11:12:40.161Z,5812.00
2023-03-13T11:13:40.982Z,5704.00
2023-03-13T11:14:40.313Z,7124.00
2023-03-13T11:15:40.150Z,7076.00
2023-03-13T11:16:40.312Z,6628.00
2023-03-13T11:17:40.141Z,7196.00
2023-03-13T11:18:40.125Z,6672.00
2023-03-13T11:19:40.090Z,6456.00
2023-03-13T11:20:40.114Z,6764.00
2023-03-13T11:21:40.091Z,8108.00
2023-03-13T11:22:40.100Z,6856.00
2023-03-13T11:23:40.091Z,5972.00
2023-03-13T11:24:40.043Z,5480.00
2023-03-13T11:25:40.047Z,4564.00
2023-03-13T11:28:37.471Z,5276.00
2023-03-13T11:29:38.732Z,6200.00
2023-03-13T11:30:38.592Z,6236.00
2023-03-13T11:31:38.617Z,5204.00
2023-03-13T11:32:38.645Z,4836.00
2023-03-13T11:33:38.565Z,4216.00
2023-03-13T11:34:38.696Z,4168.00
2023-03-13T11:35:38.564Z,3896.00
2023-03-13T11:36:39.151Z,3884.00
2023-03-13T11:37:38.708Z,3528.00
2023-03-13T11:38:38.528Z,2968.00
2023-03-13T11:39:38.594Z,2848.00
2023-03-13T11:40:38.488Z,2940.00
2023-03-13T11:41:38.623Z,3132.00
2023-03-13T11:42:38.472Z,3184.00
2023-03-13T11:43:40.760Z,2564.00
2023-03-13T11:44:38.521Z,2220.00
2023-03-13T11:45:38.516Z,2120.00
2023-03-13T11:46:38.540Z,2496.00
2023-03-13T11:47:38.506Z,2560.00
2023-03-13T11:48:38.471Z,2896.00
2023-03-13T11:49:39.777Z,3408.00
2023-03-13T11:50:39.456Z,3720.00
2023-03-13T11:51:38.530Z,4404.00
2023-03-13T11:52:38.407Z,5880.00
2023-03-13T11:53:38.384Z,6884.00
2023-03-13T11:54:38.444Z,6424.00
2023-03-13T11:55:38.406Z,4980.00
2023-03-13T11:56:38.454Z,4056.00
2023-03-13T11:57:38.407Z,3772.00
2023-03-13T11:58:38.387Z,3780.00
2023-03-13T11:59:39.068Z,3692.00
2023-03-13T12:00:38.512Z,3976.00
2023-03-13T12:01:38.378Z,4160.00
2023-03-13T12:02:38.350Z,4588.00
2023-03-13T12:03:38.353Z,4136.00
2023-03-13T12:04:38.357Z,3856.00
2023-03-13T12:05:39.152Z,3956.00
2023-03-13T12:06:38.316Z,4132.00
2023-03-13T12:07:38.273Z,4648.00
2023-03-13T12:08:38.297Z,4992.00
2023-03-13T12:09:39.980Z,4920.00
2023-03-13T12:10:38.279Z,4968.00
2023-03-13T12:11:38.389Z,4200.00
2023-03-13T12:12:38.258Z,4432.00
2023-03-13T12:13:39.071Z,4340.00
2023-03-13T12:14:38.238Z,4832.00
2023-03-13T12:15:38.290Z,4196.00
2023-03-13T12:16:38.273Z,3904.00
2023-03-13T12:17:38.318Z,3760.00
2023-03-13T12:18:38.176Z,4252.00
2023-03-13T12:19:38.187Z,5644.00
2023-03-13T12:20:38.185Z,6676.00
2023-03-13T12:21:38.196Z,6156.00
2023-03-13T12:22:38.309Z,5652.00
2023-03-13T12:23:38.262Z,6432.00
2023-03-13T12:24:38.167Z,7496.00
2023-03-13T12:25:39.724Z,6708.00
2023-03-13T12:26:39.152Z,5948.00
2023-03-13T12:27:38.150Z,6064.00
2023-03-13T12:28:38.327Z,5764.00
2023-03-13T12:29:38.106Z,5840.00
2023-03-13T12:30:38.106Z,6272.00
2023-03-13T12:31:38.092Z,6040.00
2023-03-13T12:32:38.740Z,5132.00
2023-03-13T12:33:38.662Z,4976.00
2023-03-13T12:34:38.092Z,4952.00
2023-03-13T12:35:38.100Z,5236.00
2023-03-13T12:36:38.208Z,6192.00
2023-03-13T12:37:38.071Z,6928.00
2023-03-13T12:38:38.069Z,7476.00
2023-03-13T12:39:38.080Z,8092.00
2023-03-13T12:40:38.028Z,7692.00
2023-03-13T12:41:38.035Z,7024.00
2023-03-13T12:42:38.670Z,6516.00
2023-03-13T12:43:37.992Z,6128.00
2023-03-13T12:44:38.212Z,5764.00
2023-03-13T12:45:38.103Z,5492.00
2023-03-13T12:46:38.102Z,5480.00
2023-03-13T12:47:37.963Z,5388.00
2023-03-13T12:48:37.966Z,5336.00
2023-03-13T12:49:37.973Z,5208.00
2023-03-13T12:50:37.999Z,4812.00
2023-03-13T12:51:37.978Z,4004.00
2023-03-13T12:52:37.946Z,3892.00
2023-03-13T12:53:38.083Z,3492.00
2023-03-13T12:54:37.928Z,3244.00
2023-03-13T12:55:37.934Z,3332.00
2023-03-13T12:56:37.888Z,3404.00
2023-03-13T12:57:37.901Z,3504.00
2023-03-13T12:58:37.887Z,3380.00
2023-03-13T12:59:38.588Z,3960.00
2023-03-13T13:00:40.147Z,4060.00
2023-03-13T13:01:38.920Z,3508.00